Time;durP1;ratioP1;P1;durP2;ratioP2;P2;SDS_P1;SDS_P2;PMS_P1;PMS_P2;Temp;Humidity;BMP_temperature;BMP_pressure;BME280_temperature;BME280_humidity;BME280_pressure;Samples;Min_cycle;Max_cycle;Signal;HPM_P1;HPM_P2
2022/06/07 00:00:47;;;;;;;13.38;6.57;;;12.50;99.90;;;;;;5003531;28;20056;-87
2022/06/07 00:03:13;;;;;;;14.35;6.90;;;12.50;99.90;;;;;;4984178;28;20038;-88
2022/06/07 00:05:41;;;;;;;13.48;6.50;;;12.50;99.90;;;;;;4980368;28;20041;-87
2022/06/07 00:08:07;;;;;;;11.75;6.10;;;12.50;99.90;;;;;;4991419;28;20042;-87
2022/06/07 00:10:33;;;;;;;15.82;6.50;;;12.50;99.90;;;;;;4968215;28;20045;-87
2022/06/07 00:12:59;;;;;;;12.20;6.05;;;12.50;99.90;;;;;;5005327;28;20041;-87
2022/06/07 00:15:25;;;;;;;13.10;6.20;;;13.50;99.90;;;;;;4998788;28;20419;-87
2022/06/07 00:17:51;;;;;;;14.15;6.32;;;12.50;99.90;;;;;;5003559;28;20121;-86
2022/06/07 00:20:18;;;;;;;13.32;6.30;;;12.50;99.90;;;;;;4962302;28;20489;-86
2022/06/07 00:22:44;;;;;;;13.48;6.03;;;12.50;99.90;;;;;;4966571;28;20058;-87
2022/06/07 00:25:11;;;;;;;13.38;6.40;;;12.50;99.90;;;;;;4970279;28;20131;-87
2022/06/07 00:27:37;;;;;;;12.25;6.03;;;12.50;99.90;;;;;;4993816;28;20354;-87
2022/06/07 00:30:04;;;;;;;14.13;6.57;;;12.40;99.90;;;;;;4971318;28;20050;-87
2022/06/07 00:32:31;;;;;;;12.88;6.63;;;12.50;99.90;;;;;;4985308;28;20050;-87
2022/06/07 00:34:57;;;;;;;12.77;6.07;;;12.60;99.90;;;;;;4977319;28;20119;-87
2022/06/07 00:37:22;;;;;;;13.57;6.13;;;12.50;99.90;;;;;;4992729;28;20041;-88
2022/06/07 00:39:48;;;;;;;13.40;6.38;;;12.50;99.90;;;;;;4992741;28;20097;-87
2022/06/07 00:42:15;;;;;;;13.75;6.68;;;12.40;99.90;;;;;;4992749;28;20038;-87
2022/06/07 00:44:46;;;;;;;14.00;6.28;;;12.40;99.90;;;;;;4992998;28;20492;-88
2022/06/07 00:47:23;;;;;;;13.05;7.00;;;12.50;99.90;;;;;;4991735;28;20042;-88
2022/06/07 00:49:57;;;;;;;14.20;7.68;;;12.40;99.90;;;;;;5012920;28;20041;-87
2022/06/07 00:52:27;;;;;;;13.65;6.90;;;12.50;99.90;;;;;;4978897;28;20064;-88
2022/06/07 00:54:54;;;;;;;14.00;6.68;;;12.40;99.90;;;;;;4988651;28;20046;-87
2022/06/07 00:57:21;;;;;;;14.23;6.80;;;12.40;99.90;;;;;;4992586;28;20517;-88
2022/06/07 00:59:47;;;;;;;12.30;6.35;;;12.50;99.90;;;;;;4998671;28;20684;-87
2022/06/07 01:02:13;;;;;;;14.00;6.40;;;12.50;99.90;;;;;;4995388;28;20045;-87
2022/06/07 01:04:39;;;;;;;13.07;6.65;;;12.50;99.90;;;;;;4991056;28;20042;-87
2022/06/07 01:12:34;;;;;;;12.48;6.38;;;12.50;99.90;;;;;;4993409;28;20119;-87
2022/06/07 01:15:00;;;;;;;13.20;6.78;;;12.50;99.90;;;;;;5004727;28;20046;-88
2022/06/07 01:17:26;;;;;;;13.68;6.40;;;12.50;99.90;;;;;;4992809;28;20058;-88
2022/06/07 01:19:52;;;;;;;14.43;6.88;;;12.60;99.90;;;;;;4992297;28;20063;-88
2022/06/07 01:22:18;;;;;;;12.32;6.78;;;12.60;99.90;;;;;;4973098;28;20043;-88
2022/06/07 01:24:44;;;;;;;14.13;6.85;;;12.60;99.90;;;;;;4998608;28;20224;-87
2022/06/07 01:27:10;;;;;;;13.32;7.18;;;12.60;99.90;;;;;;4983190;28;20115;-87
2022/06/07 01:29:37;;;;;;;15.75;7.25;;;12.60;99.90;;;;;;4977480;28;20049;-87
2022/06/07 01:32:04;;;;;;;13.75;6.68;;;12.60;99.90;;;;;;4981993;28;20044;-88
2022/06/07 01:34:30;;;;;;;13.20;6.57;;;12.60;99.90;;;;;;4984901;28;20458;-88
2022/06/07 01:36:57;;;;;;;16.77;7.38;;;12.60;99.90;;;;;;4991464;28;20057;-88
2022/06/07 01:42:08;;;;;;;14.25;6.72;;;12.60;99.90;;;;;;5015609;28;20053;-88
2022/06/07 01:44:47;;;;;;;12.38;6.85;;;12.60;99.90;;;;;;4995792;28;20037;-88
2022/06/07 01:47:16;;;;;;;14.57;7.10;;;12.60;99.90;;;;;;4982588;28;20606;-86
2022/06/07 01:49:43;;;;;;;11.95;6.35;;;12.60;99.90;;;;;;4985757;28;20128;-86
2022/06/07 01:52:10;;;;;;;15.70;6.93;;;12.60;99.90;;;;;;4966013;28;20042;-87
2022/06/07 01:54:36;;;;;;;14.63;7.32;;;12.60;99.90;;;;;;4990556;28;20049;-88
2022/06/07 01:57:02;;;;;;;14.02;7.00;;;12.60;99.90;;;;;;4992018;28;20041;-87
2022/06/07 01:59:28;;;;;;;14.43;7.13;;;12.60;99.90;;;;;;5000704;28;20293;-88
2022/06/07 02:01:54;;;;;;;13.82;6.93;;;12.70;99.90;;;;;;4978425;28;20308;-88
2022/06/07 02:04:23;;;;;;;11.30;6.45;;;12.70;99.90;;;;;;4978282;28;20049;-88
2022/06/07 02:06:49;;;;;;;13.68;7.00;;;12.70;99.90;;;;;;4999606;28;20044;-88
2022/06/07 02:09:16;;;;;;;15.35;7.57;;;12.70;99.90;;;;;;4987882;28;20433;-86
2022/06/07 02:11:42;;;;;;;13.25;6.78;;;12.70;99.90;;;;;;4989535;28;20057;-87
2022/06/07 02:14:08;;;;;;;12.75;6.75;;;12.70;99.90;;;;;;4964092;28;20041;-87
2022/06/07 02:16:34;;;;;;;14.70;7.78;;;12.70;99.90;;;;;;5021493;28;20083;-86
2022/06/07 02:19:00;;;;;;;14.60;7.43;;;12.70;99.90;;;;;;4977554;28;20120;-85
2022/06/07 02:21:26;;;;;;;14.15;7.03;;;12.70;99.90;;;;;;4979749;28;20386;-88
2022/06/07 02:23:52;;;;;;;13.77;7.20;;;13.00;99.90;;;;;;4996985;28;20037;-87
2022/06/07 02:26:25;;;;;;;14.63;7.80;;;12.80;99.90;;;;;;4984356;28;20081;-86
2022/06/07 02:28:53;;;;;;;;;;;12.80;99.90;;;;;;5014938;28;20049;-85
2022/06/07 02:31:21;;;;;;;12.70;6.55;;;12.80;99.90;;;;;;5003039;28;20086;-87
2022/06/07 02:33:47;;;;;;;16.33;7.65;;;12.80;99.90;;;;;;4989337;28;20107;-86
2022/06/07 02:36:16;;;;;;;17.27;7.95;;;12.90;99.90;;;;;;4984446;28;20187;-86
2022/06/07 02:38:43;;;;;;;13.38;6.90;;;12.80;99.90;;;;;;5006759;28;20034;-88
2022/06/07 02:41:12;;;;;;;15.40;7.32;;;12.80;99.90;;;;;;4995296;28;20041;-86
2022/06/07 02:43:37;;;;;;;13.40;6.82;;;12.80;99.90;;;;;;5026077;28;20045;-87
2022/06/07 02:46:03;;;;;;;13.00;7.22;;;13.40;99.90;;;;;;5011052;28;20111;-86
2022/06/07 02:48:29;;;;;;;16.20;7.10;;;12.80;99.90;;;;;;4986602;28;20060;-88
2022/06/07 02:50:55;;;;;;;12.13;6.90;;;12.80;99.90;;;;;;4985073;28;20033;-87
2022/06/07 02:53:21;;;;;;;13.40;7.70;;;12.80;99.90;;;;;;5017839;28;20529;-88
2022/06/07 02:55:47;;;;;;;13.18;7.45;;;12.80;99.90;;;;;;4992394;28;20049;-87
2022/06/07 02:58:12;;;;;;;14.02;7.22;;;12.80;99.90;;;;;;5011631;28;20040;-88
2022/06/07 03:00:38;;;;;;;12.00;6.85;;;13.00;99.90;;;;;;4992315;28;20056;-87
2022/06/07 03:03:04;;;;;;;15.90;7.63;;;12.90;99.90;;;;;;4987080;28;20133;-88
2022/06/07 03:05:30;;;;;;;14.60;7.60;;;12.90;99.90;;;;;;5011382;28;20112;-87
2022/06/07 03:07:56;;;;;;;13.75;7.63;;;12.90;99.90;;;;;;4998499;28;20034;-85
2022/06/07 03:10:22;;;;;;;14.55;7.65;;;12.90;99.90;;;;;;4990432;28;20087;-88
2022/06/07 03:12:48;;;;;;;13.32;7.55;;;12.80;99.90;;;;;;4973738;28;20043;-88
2022/06/07 03:15:14;;;;;;;13.98;7.07;;;12.90;99.90;;;;;;5006643;28;20059;-88
2022/06/07 03:17:40;;;;;;;15.75;7.57;;;12.90;99.90;;;;;;5008651;28;20481;-88
2022/06/07 03:20:08;;;;;;;14.00;7.18;;;12.90;99.90;;;;;;5001181;28;20663;-87
2022/06/07 03:22:35;;;;;;;13.68;7.05;;;12.90;99.90;;;;;;4994138;28;20476;-86
2022/06/07 03:25:05;;;;;;;14.18;7.65;;;12.90;99.90;;;;;;4978725;28;20125;-87
2022/06/07 03:27:35;;;;;;;15.35;7.55;;;12.90;99.90;;;;;;4984860;28;20172;-88
2022/06/07 03:30:06;;;;;;;19.35;8.00;;;12.90;99.90;;;;;;4985053;28;20128;-87
2022/06/07 03:32:33;;;;;;;15.10;7.55;;;12.90;99.90;;;;;;4990562;28;20048;-87
2022/06/07 03:34:59;;;;;;;13.80;7.88;;;12.90;99.90;;;;;;4970885;28;20128;-88
2022/06/07 03:37:25;;;;;;;13.85;7.38;;;12.90;99.90;;;;;;5007827;28;20109;-88
2022/06/07 03:39:51;;;;;;;13.35;7.47;;;12.90;99.90;;;;;;5005318;28;20038;-88
2022/06/07 03:42:18;;;;;;;13.70;7.72;;;12.90;99.90;;;;;;4975750;28;20041;-88
2022/06/07 03:44:48;;;;;;;15.30;8.13;;;12.90;99.90;;;;;;5007321;28;20443;-88
2022/06/07 03:47:17;;;;;;;14.30;7.70;;;13.00;99.90;;;;;;5007894;28;20217;-87
2022/06/07 03:49:43;;;;;;;17.13;8.15;;;12.80;99.90;;;;;;5008408;28;20375;-89
2022/06/07 03:52:09;;;;;;;16.38;8.00;;;12.70;99.90;;;;;;4992533;28;20045;-88
2022/06/07 03:54:34;;;;;;;16.27;8.60;;;12.80;99.90;;;;;;4975754;28;20103;-89
2022/06/07 03:57:00;;;;;;;16.63;8.30;;;12.80;99.90;;;;;;5008407;28;20053;-88
2022/06/07 03:59:29;;;;;;;15.02;8.40;;;13.00;99.90;;;;;;4994167;28;20447;-88
2022/06/07 04:01:55;;;;;;;16.05;7.85;;;12.80;99.90;;;;;;4993888;28;20038;-88
2022/06/07 04:04:21;;;;;;;13.38;7.93;;;;;;;;;;4980308;28;20495;-87
2022/06/07 04:09:39;;;;;;;14.35;8.52;;;12.80;99.90;;;;;;4979718;28;20042;-88
2022/06/07 04:12:16;;;;;;;15.70;8.70;;;12.80;99.90;;;;;;4993744;28;20108;-89
2022/06/07 04:14:44;;;;;;;16.73;8.70;;;12.80;99.90;;;;;;5010977;28;20304;-90
2022/06/07 04:17:11;;;;;;;15.90;8.45;;;12.80;99.90;;;;;;4978137;28;20038;-88
2022/06/07 04:19:38;;;;;;;15.48;8.85;;;12.80;99.90;;;;;;5010606;28;20046;-89
2022/06/07 04:22:05;;;;;;;19.35;9.15;;;12.80;99.90;;;;;;4975978;28;20049;-88
2022/06/07 04:24:32;;;;;;;14.40;9.05;;;12.80;99.90;;;;;;4961506;28;20469;-88
2022/06/07 04:26:57;;;;;;;14.80;8.02;;;12.70;99.90;;;;;;5010029;28;20029;-87
2022/06/07 04:29:24;;;;;;;12.88;6.63;;;12.70;99.90;;;;;;5012645;28;20136;-88
2022/06/07 04:31:50;;;;;;;13.38;7.00;;;12.70;99.90;;;;;;5000457;28;20780;-88
2022/06/07 04:34:21;;;;;;;12.82;6.30;;;12.70;99.90;;;;;;5025676;28;20121;-85
2022/06/07 04:36:46;;;;;;;13.05;6.05;;;12.70;99.90;;;;;;5029351;28;20050;-88
2022/06/07 04:39:12;;;;;;;15.00;6.10;;;12.70;99.90;;;;;;4995640;28;20604;-89
2022/06/07 04:41:39;;;;;;;11.13;5.30;;;12.60;99.90;;;;;;4996747;28;20052;-88
2022/06/07 04:44:05;;;;;;;13.25;5.18;;;12.60;99.90;;;;;;5024315;28;20516;-88
2022/06/07 04:46:31;;;;;;;13.13;6.05;;;12.50;99.90;;;;;;5016225;28;20070;-88
2022/06/07 04:48:57;;;;;;;13.18;5.50;;;12.50;99.90;;;;;;5016940;28;20079;-89
2022/06/07 04:51:27;;;;;;;13.25;5.38;;;12.50;99.90;;;;;;4998935;28;20037;-88
2022/06/07 04:53:54;;;;;;;12.57;6.22;;;12.40;99.90;;;;;;5027820;28;20505;-88
2022/06/07 04:56:22;;;;;;;13.50;5.22;;;12.40;99.90;;;;;;4979521;28;20493;-89
2022/06/07 04:58:48;;;;;;;11.75;5.45;;;12.40;99.90;;;;;;5020169;28;20033;-88
2022/06/07 05:01:23;;;;;;;11.13;4.53;;;12.50;99.90;;;;;;4998848;28;20060;-88
2022/06/07 05:03:49;;;;;;;12.32;4.32;;;12.40;99.90;;;;;;5007008;28;20037;-89
2022/06/07 05:06:21;;;;;;;10.88;4.80;;;12.40;99.90;;;;;;4991349;28;20452;-88
2022/06/07 05:08:47;;;;;;;10.55;4.57;;;12.70;99.90;;;;;;5014423;28;20512;-87
2022/06/07 05:11:14;;;;;;;11.45;4.82;;;12.40;99.90;;;;;;4996372;28;20121;-86
2022/06/07 05:13:39;;;;;;;11.35;5.20;;;12.50;99.90;;;;;;5034147;28;20545;-87
2022/06/07 05:16:06;;;;;;;11.23;5.05;;;12.50;99.90;;;;;;4987659;28;20124;-89
2022/06/07 05:18:32;;;;;;;10.70;5.40;;;12.50;99.90;;;;;;5015031;28;20128;-88
2022/06/07 05:20:58;;;;;;;12.18;5.45;;;12.60;99.90;;;;;;5012452;28;20128;-87
2022/06/07 05:23:24;;;;;;;13.52;5.85;;;13.30;99.90;;;;;;4994983;28;20045;-88
2022/06/07 05:26:01;;;;;;;11.35;5.88;;;12.60;99.90;;;;;;5004293;28;20509;-89
2022/06/07 05:28:28;;;;;;;13.25;5.90;;;12.60;99.90;;;;;;5031273;28;20038;-88
2022/06/07 05:30:54;;;;;;;12.43;6.00;;;12.60;99.90;;;;;;5025504;28;20084;-87
2022/06/07 05:33:20;;;;;;;11.75;6.35;;;12.60;99.90;;;;;;4995045;28;20056;-87
2022/06/07 05:35:45;;;;;;;12.45;6.13;;;12.60;99.90;;;;;;5004556;28;20088;-88
2022/06/07 05:38:12;;;;;;;14.10;6.45;;;12.60;99.90;;;;;;5015178;28;20483;-87
2022/06/07 05:40:38;;;;;;;13.18;6.00;;;12.70;99.90;;;;;;5007367;28;20038;-89
2022/06/07 05:43:04;;;;;;;15.27;6.13;;;12.00;99.90;;;;;;4996364;28;20095;-90
2022/06/07 05:45:33;;;;;;;13.27;6.57;;;12.70;99.90;;;;;;4991191;28;20073;-89
2022/06/07 05:47:59;;;;;;;13.50;6.85;;;12.80;99.90;;;;;;4994711;28;20104;-88
2022/06/07 05:50:25;;;;;;;13.25;6.85;;;12.80;99.90;;;;;;5030444;28;20045;-88
2022/06/07 05:52:52;;;;;;;13.35;6.55;;;12.90;99.90;;;;;;4997830;28;20124;-87
2022/06/07 05:55:17;;;;;;;15.65;6.60;;;12.90;99.90;;;;;;5006477;28;20050;-87
2022/06/07 05:57:49;;;;;;;12.02;6.38;;;13.00;99.90;;;;;;4997524;28;20041;-88
2022/06/07 06:00:16;;;;;;;14.52;6.05;;;13.00;99.90;;;;;;4998459;28;20037;-88
2022/06/07 06:02:42;;;;;;;12.18;5.47;;;13.00;99.90;;;;;;5014070;28;20041;-88
2022/06/07 06:05:08;;;;;;;13.07;5.57;;;12.90;99.90;;;;;;5013234;28;20048;-87
2022/06/07 06:07:34;;;;;;;11.85;5.25;;;12.90;99.90;;;;;;4986900;28;20037;-85
2022/06/07 06:10:21;;;;;;;11.65;5.00;;;12.90;99.90;;;;;;4974172;28;20341;-89
2022/06/07 06:12:46;;;;;;;9.50;4.18;;;12.40;99.90;;;;;;4992960;28;20331;-89
2022/06/07 06:15:12;;;;;;;10.45;4.63;;;12.80;99.90;;;;;;5027851;28;20269;-88
2022/06/07 06:17:38;;;;;;;11.15;4.28;;;12.80;99.90;;;;;;5001556;28;20042;-89
2022/06/07 06:20:04;;;;;;;9.98;3.80;;;12.80;99.90;;;;;;4993563;28;20069;-88
2022/06/07 06:22:30;;;;;;;10.70;3.88;;;12.40;99.90;;;;;;5005082;28;20132;-88
2022/06/07 06:24:56;;;;;;;8.82;3.58;;;12.70;99.90;;;;;;4995423;28;20116;-85
2022/06/07 06:27:22;;;;;;;10.73;3.78;;;12.50;99.90;;;;;;5012084;28;20049;-86
2022/06/07 06:29:50;;;;;;;10.75;3.78;;;12.50;99.90;;;;;;4993673;28;20069;-86
2022/06/07 06:32:16;;;;;;;9.15;3.67;;;12.40;99.90;;;;;;5007063;28;20148;-89
2022/06/07 06:34:41;;;;;;;10.77;3.70;;;12.40;99.90;;;;;;5006350;28;20537;-89
2022/06/07 06:37:08;;;;;;;10.25;3.70;;;12.30;99.90;;;;;;4993659;28;20436;-89
2022/06/07 06:39:33;;;;;;;11.70;4.03;;;12.30;99.90;;;;;;4991379;28;20429;-86
2022/06/07 06:41:59;;;;;;;10.27;3.67;;;12.30;99.90;;;;;;4989686;28;20046;-87
2022/06/07 06:44:25;;;;;;;8.93;3.65;;;12.30;99.90;;;;;;4981241;28;20034;-85
2022/06/07 06:46:51;;;;;;;12.35;4.32;;;12.20;99.90;;;;;;4973586;28;20050;-85
2022/06/07 06:49:18;;;;;;;9.90;3.55;;;12.30;99.90;;;;;;4980033;28;20108;-86
2022/06/07 06:51:45;;;;;;;9.13;3.58;;;12.20;99.90;;;;;;4971387;28;20120;-88
2022/06/07 06:54:16;;;;;;;8.23;3.03;;;10.30;99.90;;;;;;4990612;28;20125;-89
2022/06/07 06:56:42;;;;;;;9.50;3.67;;;12.20;99.90;;;;;;4988283;28;20499;-86
2022/06/07 06:59:12;;;;;;;8.90;3.40;;;12.20;99.90;;;;;;4990222;28;20448;-86
2022/06/07 07:01:39;;;;;;;9.20;3.33;;;12.30;99.90;;;;;;4995435;28;20030;-87
2022/06/07 07:04:07;;;;;;;9.85;3.85;;;12.30;99.90;;;;;;4981632;28;20113;-87
2022/06/07 07:06:33;;;;;;;9.52;3.30;;;12.40;99.90;;;;;;5002208;28;20037;-87
2022/06/07 07:09:10;;;;;;;9.93;3.13;;;12.40;99.90;;;;;;4989128;28;20030;-93
2022/06/07 07:11:42;;;;;;;8.02;2.50;;;12.50;99.90;;;;;;5001655;28;20152;-89
2022/06/07 07:14:08;;;;;;;7.93;2.30;;;12.50;99.90;;;;;;5003928;28;20437;-90
2022/06/07 07:16:39;;;;;;;8.18;2.40;;;12.60;99.90;;;;;;5001575;28;20120;-87
2022/06/07 07:19:04;;;;;;;6.70;2.05;;;12.60;99.90;;;;;;4991439;28;20091;-88
2022/06/07 07:21:36;;;;;;;7.43;2.40;;;12.60;99.90;;;;;;4989003;28;20038;-87
2022/06/07 07:24:05;;;;;;;5.50;1.92;;;12.60;99.90;;;;;;4974422;28;20391;-88
2022/06/07 07:26:32;;;;;;;8.25;2.03;;;12.60;99.90;;;;;;4986729;28;20041;-91
2022/06/07 07:28:59;;;;;;;6.30;2.20;;;12.60;99.90;;;;;;4978774;28;20119;-87
2022/06/07 07:31:36;;;;;;;6.85;2.10;;;12.70;99.90;;;;;;5004311;28;20050;-88
2022/06/07 07:34:04;;;;;;;8.60;2.10;;;12.70;99.90;;;;;;5006206;28;20530;-88
2022/06/07 07:36:31;;;;;;;9.13;2.40;;;12.80;99.90;;;;;;4995298;28;20378;-87
2022/06/07 07:38:56;;;;;;;6.10;1.83;;;13.60;99.90;;;;;;5005714;28;20030;-86
2022/06/07 07:41:26;;;;;;;7.47;2.35;;;13.00;99.90;;;;;;4993708;28;20037;-86
2022/06/07 07:43:54;;;;;;;8.63;2.03;;;13.10;99.90;;;;;;5010928;28;20081;-86
2022/06/07 07:46:22;;;;;;;9.13;2.03;;;13.20;99.90;;;;;;5007968;28;20471;-89
2022/06/07 07:48:51;;;;;;;9.98;2.00;;;13.50;99.90;;;;;;4998532;28;20052;-87
2022/06/07 07:51:23;;;;;;;8.38;2.03;;;13.30;99.90;;;;;;5017879;28;20050;-87
2022/06/07 07:53:50;;;;;;;10.35;2.50;;;13.40;99.90;;;;;;5007193;28;20041;-86
2022/06/07 07:56:16;;;;;;;11.63;2.38;;;13.50;99.90;;;;;;5024525;28;20049;-88
2022/06/07 07:58:42;;;;;;;13.35;2.70;;;13.50;99.90;;;;;;5008223;28;20038;-87
2022/06/07 08:01:10;;;;;;;9.60;2.25;;;13.50;99.90;;;;;;5010456;28;20158;-87
2022/06/07 08:03:37;;;;;;;7.30;1.83;;;13.50;99.90;;;;;;5020987;28;20386;-86
2022/06/07 08:06:05;;;;;;;11.68;2.38;;;13.40;99.90;;;;;;4991047;28;20042;-88
2022/06/07 08:08:35;;;;;;;11.32;2.03;;;13.30;99.90;;;;;;4990704;28;20379;-87
2022/06/07 08:11:09;;;;;;;9.98;2.10;;;13.30;99.90;;;;;;5027118;28;20096;-89
2022/06/07 08:13:36;;;;;;;12.50;2.55;;;13.20;99.90;;;;;;5005056;28;20034;-90
2022/06/07 08:16:06;;;;;;;8.85;2.08;;;13.20;99.90;;;;;;4973590;28;20143;-88
2022/06/07 08:18:33;;;;;;;9.43;2.38;;;13.30;99.90;;;;;;4986276;28;20158;-88
2022/06/07 08:21:03;;;;;;;10.65;2.75;;;13.30;99.90;;;;;;4995684;28;20056;-87
2022/06/07 08:23:32;;;;;;;8.65;2.40;;;13.30;99.90;;;;;;5017384;28;20038;-87
2022/06/07 08:26:01;;;;;;;9.55;2.30;;;13.40;99.90;;;;;;4990889;28;20117;-91
2022/06/07 08:28:30;;;;;;;8.05;2.20;;;13.40;99.90;;;;;;4994113;28;20042;-86
2022/06/07 08:31:02;;;;;;;8.48;2.20;;;;;;;;;;4992249;28;20038;-87
2022/06/07 08:39:28;;;;;;;8.70;2.00;;;13.60;99.90;;;;;;5013780;28;20092;-90
2022/06/07 08:42:02;;;;;;;10.05;2.60;;;13.60;99.90;;;;;;4998439;28;20034;-86
2022/06/07 08:44:48;;;;;;;11.52;2.90;;;13.60;99.90;;;;;;5019855;28;20106;-88
2022/06/07 08:47:52;;;;;;;7.57;2.17;;;13.60;99.90;;;;;;5035562;28;20056;-89
2022/06/07 08:50:22;;;;;;;;;;;13.80;99.90;;;;;;4974354;28;20049;-86
2022/06/07 08:52:56;;;;;;;10.70;2.75;;;13.80;99.90;;;;;;4996169;28;20440;-86
2022/06/07 08:55:46;;;;;;;8.77;2.72;;;13.90;99.90;;;;;;5025930;28;20434;-86
2022/06/07 08:58:36;;;;;;;10.07;2.92;;;14.10;99.90;;;;;;5013791;28;20034;-89
2022/06/07 09:01:31;;;;;;;9.13;2.67;;;14.30;99.90;;;;;;5013359;28;20061;-88
2022/06/07 09:04:10;;;;;;;10.73;2.40;;;14.50;99.90;;;;;;5029668;28;20045;-86
2022/06/07 09:06:39;;;;;;;10.65;2.45;;;14.60;99.90;;;;;;5027878;28;20061;-88
2022/06/07 09:09:05;;;;;;;8.73;2.22;;;14.70;99.90;;;;;;5009196;28;20029;-86
2022/06/07 09:14:35;;;;;;;8.43;2.28;;;14.60;99.90;;;;;;5032048;28;20034;-86
2022/06/07 09:17:12;;;;;;;8.25;2.15;;;14.80;99.90;;;;;;5028283;28;20038;-89
2022/06/07 09:19:38;;;;;;;10.73;2.50;;;14.80;99.90;;;;;;4992903;28;20464;-84
2022/06/07 09:22:13;;;;;;;10.70;2.38;;;14.80;99.90;;;;;;5013627;28;20402;-85
2022/06/07 09:24:51;;;;;;;8.88;2.20;;;14.90;99.90;;;;;;4984693;28;20034;-84
2022/06/07 09:27:17;;;;;;;8.93;2.33;;;15.10;99.90;;;;;;5009223;28;20046;-86
2022/06/07 09:29:57;;;;;;;10.10;2.38;;;15.00;99.90;;;;;;5009291;28;20648;-86
2022/06/07 09:32:26;;;;;;;8.60;2.10;;;15.10;99.90;;;;;;5005908;28;20092;-87
2022/06/07 09:35:14;;;;;;;8.13;2.10;;;15.00;99.90;;;;;;4995356;28;20045;-86
2022/06/07 09:37:55;;;;;;;10.85;2.33;;;14.90;99.90;;;;;;4991666;28;20403;-85
2022/06/07 09:40:32;;;;;;;8.77;2.00;;;14.80;99.90;;;;;;4988924;28;20112;-86
2022/06/07 09:43:13;;;;;;;8.60;2.20;;;14.70;99.90;;;;;;4992000;28;20041;-87
2022/06/07 09:45:45;;;;;;;8.55;2.00;;;14.60;99.90;;;;;;5011652;28;20029;-88
2022/06/07 09:48:36;;;;;;;8.98;2.08;;;14.50;99.90;;;;;;5005293;28;20397;-86
2022/06/07 09:51:22;;;;;;;9.85;1.92;;;14.40;99.90;;;;;;5025421;28;20176;-88
2022/06/07 09:53:58;;;;;;;9.43;2.00;;;14.30;99.90;;;;;;5019137;28;21492;-87
2022/06/07 09:56:44;;;;;;;8.52;2.00;;;14.30;99.90;;;;;;5010624;28;20080;-87
2022/06/07 09:59:25;;;;;;;7.47;1.83;;;14.30;99.90;;;;;;4995614;28;20041;-88
2022/06/07 10:01:56;;;;;;;9.35;2.03;;;14.10;99.90;;;;;;4995836;28;20505;-88
2022/06/07 10:04:34;;;;;;;11.57;2.20;;;14.10;99.90;;;;;;5007457;28;20046;-84
2022/06/07 10:07:06;;;;;;;8.02;1.88;;;14.00;99.90;;;;;;5005072;28;20493;-88
2022/06/07 10:09:51;;;;;;;12.23;2.00;;;14.30;99.90;;;;;;5019142;28;20490;-91
2022/06/07 10:12:22;;;;;;;11.30;1.98;;;13.90;99.90;;;;;;5001856;28;20046;-89
2022/06/07 10:15:08;;;;;;;11.88;2.10;;;13.90;99.90;;;;;;5007262;28;20040;-88
2022/06/07 10:17:46;;;;;;;11.43;2.10;;;14.00;99.90;;;;;;4994639;28;20125;-88
2022/06/07 10:20:14;;;;;;;8.63;2.03;;;14.00;99.90;;;;;;5033088;28;20037;-90
2022/06/07 10:23:18;;;;;;;8.90;2.10;;;14.20;99.90;;;;;;5004799;28;20055;-87
2022/06/07 10:25:47;;;;;;;;;;;14.20;99.90;;;;;;5013327;28;20374;-89
2022/06/07 10:28:35;;;;;;;6.70;2.00;;;14.20;99.90;;;;;;5029172;28;20445;-89
2022/06/07 10:31:30;;;;;;;9.38;1.98;;;14.50;99.90;;;;;;4990858;28;20046;-89
2022/06/07 10:34:04;;;;;;;10.18;2.55;;;14.50;99.90;;;;;;4974179;28;20600;-88
2022/06/07 10:36:40;;;;;;;13.07;2.58;;;15.00;99.90;;;;;;4992374;28;20457;-91
2022/06/07 10:39:14;;;;;;;11.32;2.20;;;15.10;99.90;;;;;;5002064;28;20048;-91
2022/06/07 10:41:47;;;;;;;8.30;2.10;;;15.20;99.90;;;;;;4976760;28;20080;-87
2022/06/07 10:44:16;;;;;;;;;;;15.20;99.90;;;;;;4992826;28;20125;-89
2022/06/07 10:46:43;;;;;;;7.15;1.60;;;15.10;99.90;;;;;;4993704;28;19964;-89
2022/06/07 10:49:46;;;;;;;8.93;1.90;;;15.10;99.90;;;;;;5004790;28;20054;-87
2022/06/07 10:52:24;;;;;;;9.82;2.08;;;15.10;99.90;;;;;;4981161;28;20052;-87
2022/06/07 10:55:08;;;;;;;9.20;2.10;;;15.20;99.90;;;;;;4966327;28;20158;-88
2022/06/07 10:58:00;;;;;;;7.97;1.80;;;15.30;99.90;;;;;;4994760;28;20038;-87
2022/06/07 11:00:51;;;;;;;8.10;1.83;;;15.20;99.90;;;;;;4970174;28;20038;-88
2022/06/07 11:03:51;;;;;;;9.27;2.05;;;15.20;99.90;;;;;;4995721;28;20477;-89
2022/06/07 11:09:31;;;;;;;10.38;2.50;;;14.90;99.90;;;;;;5005457;28;20855;-88
2022/06/07 11:12:10;;;;;;;9.95;2.10;;;14.80;99.90;;;;;;5005743;28;20049;-89
2022/06/07 11:14:55;;;;;;;7.25;2.10;;;14.70;99.90;;;;;;5000493;28;20040;-87
2022/06/07 11:17:49;;;;;;;8.70;2.50;;;14.70;99.90;;;;;;4982850;28;20045;-87
2022/06/07 11:20:26;;;;;;;14.27;2.10;;;14.70;99.90;;;;;;4985619;28;20166;-85
2022/06/07 11:23:02;;;;;;;7.03;2.00;;;14.70;99.90;;;;;;4997805;28;20483;-88
2022/06/07 11:25:36;;;;;;;6.68;1.88;;;14.80;99.90;;;;;;4999610;28;20498;-86
2022/06/07 11:28:25;;;;;;;8.98;2.13;;;14.90;99.90;;;;;;4991422;28;20122;-87
2022/06/07 11:30:54;;;;;;;8.55;1.95;;;15.00;99.90;;;;;;4980022;28;20068;-88
2022/06/07 11:33:29;;;;;;;10.93;2.47;;;15.10;99.90;;;;;;4989730;28;20041;-88
2022/06/07 11:36:13;;;;;;;8.27;1.90;;;15.20;99.90;;;;;;4988430;28;20045;-86
2022/06/07 11:41:44;;;;;;;8.52;2.03;;;15.30;99.90;;;;;;5003719;28;20530;-86
2022/06/07 11:44:12;;;;;;;7.65;1.92;;;15.40;99.90;;;;;;5002064;28;20517;-86
2022/06/07 11:46:39;;;;;;;9.32;1.85;;;15.50;99.90;;;;;;5011918;28;20099;-87
2022/06/07 11:49:17;;;;;;;8.63;1.92;;;15.60;99.90;;;;;;4985002;28;20034;-88
2022/06/07 11:51:55;;;;;;;8.15;2.15;;;15.70;99.90;;;;;;5023355;28;20038;-86
2022/06/07 11:54:53;;;;;;;7.63;2.10;;;15.70;99.90;;;;;;4986961;28;20046;-88
2022/06/07 11:57:57;;;;;;;8.45;2.15;;;15.80;99.90;;;;;;4968191;28;20056;-88
2022/06/07 12:00:22;;;;;;;5.90;1.85;;;16.00;99.90;;;;;;4984978;28;20034;-87
2022/06/07 12:02:57;;;;;;;6.82;1.50;;;16.50;99.90;;;;;;5000775;28;20053;-89
2022/06/07 12:05:55;;;;;;;6.13;1.60;;;17.10;99.90;;;;;;5000728;28;20412;-87
2022/06/07 12:08:30;;;;;;;5.82;1.63;;;17.40;99.90;;;;;;4988079;28;20034;-89
2022/06/07 12:11:04;;;;;;;7.47;1.83;;;17.50;99.90;;;;;;4991192;28;20034;-85
2022/06/07 12:13:52;;;;;;;7.95;1.75;;;17.50;99.90;;;;;;4991239;28;20052;-92
2022/06/07 12:16:55;;;;;;;7.45;1.58;;;17.50;99.90;;;;;;4998890;28;20048;-89
2022/06/07 12:19:28;;;;;;;8.73;1.80;;;17.40;99.90;;;;;;4983545;28;20050;-89
2022/06/07 12:22:19;;;;;;;6.45;1.60;;;17.60;99.90;;;;;;4999644;28;20547;-88
2022/06/07 12:25:00;;;;;;;7.38;1.85;;;17.20;99.90;;;;;;4990077;28;20129;-86
2022/06/07 12:27:35;;;;;;;10.45;2.35;;;;;;;;;;5001935;28;20049;-86
2022/06/07 12:30:34;;;;;;;8.88;2.10;;;17.30;99.90;;;;;;5014724;28;20053;-87
2022/06/07 12:33:33;;;;;;;10.93;2.30;;;17.30;99.90;;;;;;4985397;28;20205;-86
2022/06/07 12:36:02;;;;;;;8.90;2.28;;;17.20;99.90;;;;;;5014944;28;20041;-87
2022/06/07 12:38:30;;;;;;;7.63;1.98;;;17.30;99.90;;;;;;4994364;28;20107;-86
2022/06/07 12:41:02;;;;;;;9.13;2.33;;;17.20;99.90;;;;;;5027554;28;20155;-86
2022/06/07 12:43:33;;;;;;;10.57;2.00;;;17.10;99.90;;;;;;4993337;28;20053;-88
2022/06/07 12:46:06;;;;;;;10.63;2.83;;;16.90;99.90;;;;;;4993447;28;20064;-88
2022/06/07 12:48:40;;;;;;;10.68;2.10;;;16.70;99.90;;;;;;5011451;28;20052;-87
2022/06/07 12:51:24;;;;;;;8.05;1.92;;;16.50;99.90;;;;;;5008733;28;20629;-88
2022/06/07 12:54:01;;;;;;;6.55;1.95;;;16.40;99.90;;;;;;5011919;28;20061;-88
2022/06/07 12:56:30;;;;;;;12.43;2.50;;;16.30;99.90;;;;;;5006770;28;20126;-86
2022/06/07 12:58:57;;;;;;;8.27;2.03;;;16.20;99.90;;;;;;5021074;28;20509;-88
2022/06/07 13:01:32;;;;;;;8.70;2.10;;;16.10;99.90;;;;;;4977290;28;20508;-88
2022/06/07 13:04:04;;;;;;;9.25;2.00;;;16.10;99.90;;;;;;4993265;28;20048;-86
2022/06/07 13:06:30;;;;;;;9.07;1.90;;;16.10;99.90;;;;;;5010501;28;20524;-89
2022/06/07 13:09:28;;;;;;;9.32;2.00;;;16.10;99.90;;;;;;4976990;28;20140;-87
2022/06/07 13:11:54;;;;;;;9.80;2.20;;;16.20;99.90;;;;;;4994396;28;20149;-87
2022/06/07 13:14:20;;;;;;;10.27;1.95;;;;;;;;;;4977361;28;20033;-87
2022/06/07 13:16:47;;;;;;;9.00;1.88;;;16.30;99.90;;;;;;4994875;28;20034;-85
2022/06/07 13:19:13;;;;;;;8.55;2.00;;;16.40;99.90;;;;;;5006238;28;20065;-86
2022/06/07 13:22:14;;;;;;;9.07;2.20;;;16.50;99.90;;;;;;5010581;28;20054;-87
2022/06/07 13:24:47;;;;;;;7.28;1.67;;;16.80;99.90;;;;;;4995832;28;20049;-86
2022/06/07 13:27:28;;;;;;;8.63;1.90;;;17.30;99.90;;;;;;4998817;28;20048;-86
2022/06/07 13:29:54;;;;;;;9.02;1.80;;;17.40;99.90;;;;;;5009151;28;20046;-86